sensor_id;sensor_type;location;lat;lon;timestamp;P1;durP1;ratioP1;P2;durP2;ratioP2
67429;SDS011;54298;52.076;5.264;2023-04-27T00:01:33;9.81;;;5.11;;
67429;SDS011;54298;52.076;5.264;2023-04-27T00:03:09;7.5;;;4.61;;
67429;SDS011;54298;52.076;5.264;2023-04-27T00:06:22;9.71;;;5.3;;
67429;SDS011;54298;52.076;5.264;2023-04-27T00:07:58;9.9;;;5.11;;
67429;SDS011;54298;52.076;5.264;2023-04-27T00:09:34;8.5;;;5.7;;
67429;SDS011;54298;52.076;5.264;2023-04-27T00:11:10;11.9;;;5.6;;
67429;SDS011;54298;52.076;5.264;2023-04-27T00:14:22;10.5;;;5.3;;
67429;SDS011;54298;52.076;5.264;2023-04-27T00:15:59;7.6;;;4.2;;
67429;SDS011;54298;52.076;5.264;2023-04-27T00:17:36;11.2;;;5.5;;
67429;SDS011;54298;52.076;5.264;2023-04-27T00:20:48;9.6;;;5.3;;
67429;SDS011;54298;52.076;5.264;2023-04-27T00:22:24;11.4;;;5.11;;
67429;SDS011;54298;52.076;5.264;2023-04-27T00:24:00;9.71;;;5.0;;
67429;SDS011;54298;52.076;5.264;2023-04-27T00:27:13;11.5;;;5.3;;
67429;SDS011;54298;52.076;5.264;2023-04-27T00:28:49;10.3;;;5.2;;
67429;SDS011;54298;52.076;5.264;2023-04-27T00:30:26;7.7;;;4.61;;
67429;SDS011;54298;52.076;5.264;2023-04-27T00:33:38;7.5;;;4.7;;
67429;SDS011;54298;52.076;5.264;2023-04-27T00:35:14;9.4;;;4.61;;
67429;SDS011;54298;52.076;5.264;2023-04-27T00:36:50;7.6;;;4.7;;
67429;SDS011;54298;52.076;5.264;2023-04-27T00:38:26;7.6;;;4.7;;
67429;SDS011;54298;52.076;5.264;2023-04-27T00:41:40;8.31;;;4.8;;
67429;SDS011;54298;52.076;5.264;2023-04-27T00:43:17;11.3;;;5.2;;
67429;SDS011;54298;52.076;5.264;2023-04-27T00:44:53;8.4;;;5.11;;
67429;SDS011;54298;52.076;5.264;2023-04-27T00:48:09;10.1;;;5.0;;
67429;SDS011;54298;52.076;5.264;2023-04-27T00:49:46;9.0;;;5.0;;
67429;SDS011;54298;52.076;5.264;2023-04-27T00:51:22;9.1;;;4.91;;
67429;SDS011;54298;52.076;5.264;2023-04-27T00:52:59;8.0;;;5.3;;
67429;SDS011;54298;52.076;5.264;2023-04-27T00:56:13;9.9;;;5.11;;
67429;SDS011;54298;52.076;5.264;2023-04-27T00:57:49;7.6;;;4.3;;
67429;SDS011;54298;52.076;5.264;2023-04-27T00:59:25;10.7;;;4.8;;
67429;SDS011;54298;52.076;5.264;2023-04-27T01:02:38;8.9;;;4.41;;
67429;SDS011;54298;52.076;5.264;2023-04-27T01:04:14;7.8;;;4.5;;
67429;SDS011;54298;52.076;5.264;2023-04-27T01:05:51;9.21;;;5.2;;
67429;SDS011;54298;52.076;5.264;2023-04-27T01:09:04;10.1;;;5.11;;
67429;SDS011;54298;52.076;5.264;2023-04-27T01:10:40;9.71;;;5.11;;
67429;SDS011;54298;52.076;5.264;2023-04-27T01:12:16;8.6;;;5.0;;
67429;SDS011;54298;52.076;5.264;2023-04-27T01:15:30;8.5;;;4.61;;
67429;SDS011;54298;52.076;5.264;2023-04-27T01:17:06;8.9;;;4.91;;
67429;SDS011;54298;52.076;5.264;2023-04-27T01:18:42;8.71;;;5.0;;
67429;SDS011;54298;52.076;5.264;2023-04-27T01:20:18;8.81;;;4.7;;
67429;SDS011;54298;52.076;5.264;2023-04-27T01:23:31;9.6;;;4.91;;
67429;SDS011;54298;52.076;5.264;2023-04-27T01:25:07;8.5;;;5.2;;
67429;SDS011;54298;52.076;5.264;2023-04-27T01:26:43;8.1;;;5.3;;
67429;SDS011;54298;52.076;5.264;2023-04-27T01:29:55;9.71;;;5.0;;
67429;SDS011;54298;52.076;5.264;2023-04-27T01:31:31;8.71;;;5.7;;
67429;SDS011;54298;52.076;5.264;2023-04-27T01:36:20;9.71;;;6.2;;
67429;SDS011;54298;52.076;5.264;2023-04-27T01:37:56;10.0;;;5.6;;
67429;SDS011;54298;52.076;5.264;2023-04-27T01:39:33;8.9;;;5.3;;
67429;SDS011;54298;52.076;5.264;2023-04-27T01:41:09;11.3;;;5.7;;
67429;SDS011;54298;52.076;5.264;2023-04-27T01:44:21;8.31;;;5.4;;
67429;SDS011;54298;52.076;5.264;2023-04-27T01:46:03;9.9;;;5.8;;
67429;SDS011;54298;52.076;5.264;2023-04-27T01:47:40;9.5;;;5.8;;
67429;SDS011;54298;52.076;5.264;2023-04-27T01:50:53;10.0;;;5.7;;
67429;SDS011;54298;52.076;5.264;2023-04-27T01:52:29;11.7;;;5.7;;
67429;SDS011;54298;52.076;5.264;2023-04-27T01:54:05;7.6;;;5.11;;
67429;SDS011;54298;52.076;5.264;2023-04-27T01:57:18;9.31;;;5.3;;
67429;SDS011;54298;52.076;5.264;2023-04-27T01:58:54;7.9;;;5.4;;
67429;SDS011;54298;52.076;5.264;2023-04-27T02:00:30;8.9;;;5.7;;
67429;SDS011;54298;52.076;5.264;2023-04-27T02:02:06;9.9;;;6.2;;
67429;SDS011;54298;52.076;5.264;2023-04-27T02:05:19;8.6;;;5.4;;
67429;SDS011;54298;52.076;5.264;2023-04-27T02:06:55;7.6;;;5.3;;
67429;SDS011;54298;52.076;5.264;2023-04-27T02:08:31;10.5;;;5.5;;
67429;SDS011;54298;52.076;5.264;2023-04-27T02:11:44;9.21;;;6.1;;
67429;SDS011;54298;52.076;5.264;2023-04-27T02:13:20;9.1;;;5.9;;
67429;SDS011;54298;52.076;5.264;2023-04-27T02:14:56;8.81;;;6.2;;
67429;SDS011;54298;52.076;5.264;2023-04-27T02:19:46;12.2;;;6.7;;
67429;SDS011;54298;52.076;5.264;2023-04-27T02:21:22;11.1;;;6.9;;
67429;SDS011;54298;52.076;5.264;2023-04-27T02:22:58;9.81;;;5.7;;
67429;SDS011;54298;52.076;5.264;2023-04-27T02:26:14;10.7;;;5.9;;
67429;SDS011;54298;52.076;5.264;2023-04-27T02:27:51;10.8;;;5.7;;
67429;SDS011;54298;52.076;5.264;2023-04-27T02:29:28;9.6;;;6.3;;
67429;SDS011;54298;52.076;5.264;2023-04-27T02:32:41;10.3;;;6.6;;
67429;SDS011;54298;52.076;5.264;2023-04-27T02:34:18;9.31;;;6.3;;
67429;SDS011;54298;52.076;5.264;2023-04-27T02:35:54;9.81;;;6.5;;
67429;SDS011;54298;52.076;5.264;2023-04-27T02:39:06;8.71;;;5.4;;
67429;SDS011;54298;52.076;5.264;2023-04-27T02:40:42;7.8;;;5.7;;
67429;SDS011;54298;52.076;5.264;2023-04-27T02:42:18;8.6;;;5.8;;
67429;SDS011;54298;52.076;5.264;2023-04-27T02:43:54;10.5;;;5.8;;
67429;SDS011;54298;52.076;5.264;2023-04-27T02:47:07;11.2;;;5.7;;
67429;SDS011;54298;52.076;5.264;2023-04-27T02:48:43;10.3;;;6.1;;
67429;SDS011;54298;52.076;5.264;2023-04-27T02:50:19;9.4;;;5.8;;
67429;SDS011;54298;52.076;5.264;2023-04-27T02:53:31;8.4;;;5.8;;
67429;SDS011;54298;52.076;5.264;2023-04-27T02:55:07;8.81;;;5.6;;
67429;SDS011;54298;52.076;5.264;2023-04-27T02:56:44;10.8;;;6.3;;
67429;SDS011;54298;52.076;5.264;2023-04-27T02:59:56;9.21;;;6.1;;
67429;SDS011;54298;52.076;5.264;2023-04-27T03:01:33;10.6;;;5.8;;
67429;SDS011;54298;52.076;5.264;2023-04-27T03:04:45;11.0;;;7.0;;
67429;SDS011;54298;52.076;5.264;2023-04-27T03:07:57;14.4;;;6.2;;
67429;SDS011;54298;52.076;5.264;2023-04-27T03:09:33;10.1;;;7.0;;
67429;SDS011;54298;52.076;5.264;2023-04-27T03:11:09;10.21;;;6.9;;
67429;SDS011;54298;52.076;5.264;2023-04-27T03:14:21;10.1;;;6.5;;
67429;SDS011;54298;52.076;5.264;2023-04-27T03:15:58;10.4;;;6.1;;
67429;SDS011;54298;52.076;5.264;2023-04-27T03:17:34;12.3;;;7.6;;
67429;SDS011;54298;52.076;5.264;2023-04-27T03:20:46;13.1;;;7.8;;
67429;SDS011;54298;52.076;5.264;2023-04-27T03:22:23;10.21;;;7.4;;
67429;SDS011;54298;52.076;5.264;2023-04-27T03:23:59;11.5;;;7.2;;
67429;SDS011;54298;52.076;5.264;2023-04-27T03:27:11;9.81;;;6.1;;
67429;SDS011;54298;52.076;5.264;2023-04-27T03:28:47;11.8;;;7.3;;
67429;SDS011;54298;52.076;5.264;2023-04-27T03:30:23;10.1;;;6.8;;
67429;SDS011;54298;52.076;5.264;2023-04-27T03:31:59;12.0;;;6.9;;
67429;SDS011;54298;52.076;5.264;2023-04-27T03:35:12;11.1;;;7.3;;
67429;SDS011;54298;52.076;5.264;2023-04-27T03:36:48;12.9;;;7.6;;
67429;SDS011;54298;52.076;5.264;2023-04-27T03:38:26;12.5;;;7.8;;
67429;SDS011;54298;52.076;5.264;2023-04-27T03:41:40;12.8;;;7.7;;
67429;SDS011;54298;52.076;5.264;2023-04-27T03:43:16;11.4;;;7.2;;
67429;SDS011;54298;52.076;5.264;2023-04-27T03:44:52;13.4;;;7.4;;
67429;SDS011;54298;52.076;5.264;2023-04-27T03:48:04;13.6;;;7.6;;
67429;SDS011;54298;52.076;5.264;2023-04-27T03:49:40;11.1;;;7.8;;
67429;SDS011;54298;52.076;5.264;2023-04-27T03:51:16;12.9;;;7.9;;
67429;SDS011;54298;52.076;5.264;2023-04-27T03:52:52;10.9;;;7.6;;
67429;SDS011;54298;52.076;5.264;2023-04-27T03:56:06;11.4;;;7.1;;
67429;SDS011;54298;52.076;5.264;2023-04-27T03:57:42;11.2;;;6.9;;
67429;SDS011;54298;52.076;5.264;2023-04-27T03:59:18;11.6;;;7.3;;
67429;SDS011;54298;52.076;5.264;2023-04-27T04:02:30;9.81;;;7.2;;
67429;SDS011;54298;52.076;5.264;2023-04-27T04:04:06;10.3;;;6.9;;
67429;SDS011;54298;52.076;5.264;2023-04-27T04:05:42;13.9;;;8.0;;
67429;SDS011;54298;52.076;5.264;2023-04-27T04:08:55;13.1;;;8.31;;
67429;SDS011;54298;52.076;5.264;2023-04-27T04:10:31;15.2;;;9.0;;
67429;SDS011;54298;52.076;5.264;2023-04-27T04:12:07;11.4;;;7.1;;
67429;SDS011;54298;52.076;5.264;2023-04-27T04:15:19;12.5;;;8.1;;
67429;SDS011;54298;52.076;5.264;2023-04-27T04:16:55;10.7;;;6.9;;
67429;SDS011;54298;52.076;5.264;2023-04-27T04:18:31;10.0;;;7.3;;
67429;SDS011;54298;52.076;5.264;2023-04-27T04:20:08;14.2;;;8.0;;
67429;SDS011;54298;52.076;5.264;2023-04-27T04:23:21;12.8;;;8.0;;
67429;SDS011;54298;52.076;5.264;2023-04-27T04:24:57;16.61;;;8.6;;
67429;SDS011;54298;52.076;5.264;2023-04-27T04:26:33;14.9;;;9.4;;
67429;SDS011;54298;52.076;5.264;2023-04-27T04:29:45;14.3;;;8.9;;
67429;SDS011;54298;52.076;5.264;2023-04-27T04:31:21;11.4;;;8.71;;
67429;SDS011;54298;52.076;5.264;2023-04-27T04:32:57;13.7;;;9.9;;
67429;SDS011;54298;52.076;5.264;2023-04-27T04:36:10;15.2;;;10.0;;
67429;SDS011;54298;52.076;5.264;2023-04-27T04:37:46;15.6;;;9.5;;
67429;SDS011;54298;52.076;5.264;2023-04-27T04:39:22;15.3;;;9.4;;
67429;SDS011;54298;52.076;5.264;2023-04-27T04:40:58;14.7;;;9.5;;
67429;SDS011;54298;52.076;5.264;2023-04-27T04:44:10;13.9;;;8.81;;
67429;SDS011;54298;52.076;5.264;2023-04-27T04:45:46;15.2;;;9.31;;
67429;SDS011;54298;52.076;5.264;2023-04-27T04:47:22;14.1;;;8.81;;
67429;SDS011;54298;52.076;5.264;2023-04-27T04:50:35;15.7;;;9.4;;
67429;SDS011;54298;52.076;5.264;2023-04-27T04:52:11;13.7;;;9.0;;
67429;SDS011;54298;52.076;5.264;2023-04-27T04:53:47;13.1;;;8.81;;
67429;SDS011;54298;52.076;5.264;2023-04-27T04:57:00;14.7;;;8.6;;
67429;SDS011;54298;52.076;5.264;2023-04-27T04:58:36;11.6;;;8.4;;
67429;SDS011;54298;52.076;5.264;2023-04-27T05:00:13;13.5;;;9.21;;
67429;SDS011;54298;52.076;5.264;2023-04-27T05:03:26;12.4;;;8.5;;
67429;SDS011;54298;52.076;5.264;2023-04-27T05:05:02;13.1;;;8.2;;
67429;SDS011;54298;52.076;5.264;2023-04-27T05:06:39;12.1;;;7.8;;
67429;SDS011;54298;52.076;5.264;2023-04-27T05:08:15;13.7;;;7.4;;
67429;SDS011;54298;52.076;5.264;2023-04-27T05:11:27;14.2;;;8.1;;
67429;SDS011;54298;52.076;5.264;2023-04-27T05:13:03;13.7;;;8.9;;
67429;SDS011;54298;52.076;5.264;2023-04-27T05:14:40;13.7;;;8.9;;
67429;SDS011;54298;52.076;5.264;2023-04-27T05:17:53;12.6;;;7.5;;
67429;SDS011;54298;52.076;5.264;2023-04-27T05:19:29;12.3;;;7.8;;
67429;SDS011;54298;52.076;5.264;2023-04-27T05:21:12;12.4;;;8.31;;
67429;SDS011;54298;52.076;5.264;2023-04-27T05:24:24;11.9;;;7.7;;
67429;SDS011;54298;52.076;5.264;2023-04-27T05:26:00;12.8;;;7.5;;
67429;SDS011;54298;52.076;5.264;2023-04-27T05:27:36;12.9;;;8.31;;
67429;SDS011;54298;52.076;5.264;2023-04-27T05:29:12;17.11;;;8.5;;
67429;SDS011;54298;52.076;5.264;2023-04-27T05:32:25;12.1;;;8.1;;
67429;SDS011;54298;52.076;5.264;2023-04-27T05:34:01;14.6;;;8.81;;
67429;SDS011;54298;52.076;5.264;2023-04-27T05:35:37;12.4;;;8.5;;
67429;SDS011;54298;52.076;5.264;2023-04-27T05:38:49;13.9;;;8.0;;
67429;SDS011;54298;52.076;5.264;2023-04-27T05:40:25;12.8;;;7.0;;
67429;SDS011;54298;52.076;5.264;2023-04-27T05:42:02;12.3;;;7.7;;
67429;SDS011;54298;52.076;5.264;2023-04-27T05:45:15;13.9;;;8.31;;
67429;SDS011;54298;52.076;5.264;2023-04-27T05:46:51;12.6;;;8.1;;
67429;SDS011;54298;52.076;5.264;2023-04-27T05:48:27;13.2;;;9.0;;
67429;SDS011;54298;52.076;5.264;2023-04-27T05:50:04;14.4;;;9.0;;
67429;SDS011;54298;52.076;5.264;2023-04-27T05:53:16;12.7;;;8.5;;
67429;SDS011;54298;52.076;5.264;2023-04-27T05:54:52;13.5;;;7.8;;
67429;SDS011;54298;52.076;5.264;2023-04-27T05:56:28;12.4;;;7.8;;
67429;SDS011;54298;52.076;5.264;2023-04-27T05:59:41;10.5;;;7.2;;
67429;SDS011;54298;52.076;5.264;2023-04-27T06:01:18;12.3;;;8.1;;
67429;SDS011;54298;52.076;5.264;2023-04-27T06:02:54;12.0;;;7.6;;
67429;SDS011;54298;52.076;5.264;2023-04-27T06:06:06;13.3;;;7.9;;
67429;SDS011;54298;52.076;5.264;2023-04-27T06:07:42;11.8;;;7.4;;
67429;SDS011;54298;52.076;5.264;2023-04-27T06:09:18;11.5;;;6.9;;
67429;SDS011;54298;52.076;5.264;2023-04-27T06:12:31;14.1;;;6.7;;
67429;SDS011;54298;52.076;5.264;2023-04-27T06:14:07;14.1;;;7.9;;
67429;SDS011;54298;52.076;5.264;2023-04-27T06:15:43;11.6;;;7.0;;
67429;SDS011;54298;52.076;5.264;2023-04-27T06:17:20;10.9;;;6.9;;
67429;SDS011;54298;52.076;5.264;2023-04-27T06:20:32;14.1;;;7.5;;
67429;SDS011;54298;52.076;5.264;2023-04-27T06:22:08;15.3;;;8.0;;
67429;SDS011;54298;52.076;5.264;2023-04-27T06:23:44;12.3;;;7.7;;
67429;SDS011;54298;52.076;5.264;2023-04-27T06:26:57;12.2;;;6.8;;
67429;SDS011;54298;52.076;5.264;2023-04-27T06:28:33;14.8;;;6.9;;
67429;SDS011;54298;52.076;5.264;2023-04-27T06:30:10;10.7;;;6.1;;
67429;SDS011;54298;52.076;5.264;2023-04-27T06:33:22;13.0;;;7.5;;
67429;SDS011;54298;52.076;5.264;2023-04-27T06:34:58;15.6;;;8.71;;
67429;SDS011;54298;52.076;5.264;2023-04-27T06:36:35;23.0;;;14.3;;
67429;SDS011;54298;52.076;5.264;2023-04-27T06:38:11;14.0;;;5.7;;
67429;SDS011;54298;52.076;5.264;2023-04-27T06:41:23;8.5;;;4.3;;
67429;SDS011;54298;52.076;5.264;2023-04-27T06:43:01;11.7;;;4.91;;
67429;SDS011;54298;52.076;5.264;2023-04-27T06:44:37;8.4;;;4.2;;
67429;SDS011;54298;52.076;5.264;2023-04-27T06:47:49;13.0;;;5.5;;
67429;SDS011;54298;52.076;5.264;2023-04-27T06:49:26;7.5;;;4.3;;
67429;SDS011;54298;52.076;5.264;2023-04-27T06:51:02;12.4;;;4.61;;
67429;SDS011;54298;52.076;5.264;2023-04-27T06:54:15;10.4;;;4.41;;
67429;SDS011;54298;52.076;5.264;2023-04-27T06:55:51;9.31;;;4.0;;
67429;SDS011;54298;52.076;5.264;2023-04-27T06:57:27;11.1;;;3.5;;
67429;SDS011;54298;52.076;5.264;2023-04-27T06:59:03;10.1;;;3.9;;
67429;SDS011;54298;52.076;5.264;2023-04-27T07:02:16;9.21;;;3.6;;
67429;SDS011;54298;52.076;5.264;2023-04-27T07:03:52;10.1;;;3.8;;
67429;SDS011;54298;52.076;5.264;2023-04-27T07:05:27;7.5;;;3.6;;
67429;SDS011;54298;52.076;5.264;2023-04-27T07:08:39;12.4;;;3.9;;
67429;SDS011;54298;52.076;5.264;2023-04-27T07:10:17;11.3;;;3.6;;
67429;SDS011;54298;52.076;5.264;2023-04-27T07:11:53;10.5;;;3.6;;
67429;SDS011;54298;52.076;5.264;2023-04-27T07:15:06;9.21;;;3.2;;
67429;SDS011;54298;52.076;5.264;2023-04-27T07:16:44;7.0;;;4.0;;
67429;SDS011;54298;52.076;5.264;2023-04-27T07:18:21;11.3;;;4.1;;
67429;SDS011;54298;52.076;5.264;2023-04-27T07:19:57;8.2;;;3.8;;
67429;SDS011;54298;52.076;5.264;2023-04-27T07:23:09;7.4;;;3.4;;
67429;SDS011;54298;52.076;5.264;2023-04-27T07:24:46;8.2;;;3.6;;
67429;SDS011;54298;52.076;5.264;2023-04-27T07:26:22;9.71;;;3.5;;
67429;SDS011;54298;52.076;5.264;2023-04-27T07:29:34;9.71;;;3.5;;
67429;SDS011;54298;52.076;5.264;2023-04-27T07:31:10;7.3;;;3.2;;
67429;SDS011;54298;52.076;5.264;2023-04-27T07:32:48;7.9;;;3.4;;
67429;SDS011;54298;52.076;5.264;2023-04-27T07:36:01;10.5;;;4.61;;
67429;SDS011;54298;52.076;5.264;2023-04-27T07:37:37;10.7;;;5.6;;
67429;SDS011;54298;52.076;5.264;2023-04-27T07:39:14;8.5;;;3.8;;
67429;SDS011;54298;52.076;5.264;2023-04-27T07:42:26;5.6;;;3.0;;
67429;SDS011;54298;52.076;5.264;2023-04-27T07:44:02;8.6;;;3.3;;
67429;SDS011;54298;52.076;5.264;2023-04-27T07:45:39;7.8;;;3.2;;
67429;SDS011;54298;52.076;5.264;2023-04-27T07:47:15;7.7;;;3.3;;
67429;SDS011;54298;52.076;5.264;2023-04-27T07:50:29;5.8;;;3.0;;
67429;SDS011;54298;52.076;5.264;2023-04-27T07:52:06;6.9;;;3.2;;
67429;SDS011;54298;52.076;5.264;2023-04-27T07:53:42;7.8;;;3.1;;
67429;SDS011;54298;52.076;5.264;2023-04-27T07:56:55;9.31;;;3.2;;
67429;SDS011;54298;52.076;5.264;2023-04-27T07:58:31;5.7;;;3.0;;
67429;SDS011;54298;52.076;5.264;2023-04-27T08:00:07;7.8;;;2.9;;
67429;SDS011;54298;52.076;5.264;2023-04-27T08:03:20;6.4;;;3.0;;
67429;SDS011;54298;52.076;5.264;2023-04-27T08:04:57;9.0;;;3.1;;
67429;SDS011;54298;52.076;5.264;2023-04-27T08:06:33;9.4;;;3.9;;
67429;SDS011;54298;52.076;5.264;2023-04-27T08:08:09;10.1;;;4.7;;
67429;SDS011;54298;52.076;5.264;2023-04-27T08:11:21;10.1;;;4.2;;
67429;SDS011;54298;52.076;5.264;2023-04-27T08:12:57;8.6;;;3.9;;
67429;SDS011;54298;52.076;5.264;2023-04-27T08:14:33;8.6;;;3.3;;
67429;SDS011;54298;52.076;5.264;2023-04-27T08:17:45;5.9;;;3.1;;
67429;SDS011;54298;52.076;5.264;2023-04-27T08:19:22;8.9;;;3.4;;
67429;SDS011;54298;52.076;5.264;2023-04-27T08:20:59;8.4;;;3.6;;
67429;SDS011;54298;52.076;5.264;2023-04-27T08:24:11;6.7;;;3.1;;
67429;SDS011;54298;52.076;5.264;2023-04-27T08:25:47;6.8;;;3.0;;
67429;SDS011;54298;52.076;5.264;2023-04-27T08:27:23;6.3;;;3.1;;
67429;SDS011;54298;52.076;5.264;2023-04-27T08:28:59;7.6;;;3.3;;
67429;SDS011;54298;52.076;5.264;2023-04-27T08:32:13;6.5;;;3.3;;
67429;SDS011;54298;52.076;5.264;2023-04-27T08:33:50;5.8;;;3.1;;
67429;SDS011;54298;52.076;5.264;2023-04-27T08:35:26;6.9;;;3.2;;
67429;SDS011;54298;52.076;5.264;2023-04-27T08:38:38;6.2;;;3.1;;
67429;SDS011;54298;52.076;5.264;2023-04-27T08:40:14;6.8;;;3.2;;
67429;SDS011;54298;52.076;5.264;2023-04-27T08:41:50;8.31;;;4.0;;
67429;SDS011;54298;52.076;5.264;2023-04-27T08:45:09;9.5;;;3.6;;
67429;SDS011;54298;52.076;5.264;2023-04-27T08:46:46;8.6;;;3.3;;
67429;SDS011;54298;52.076;5.264;2023-04-27T08:48:22;6.8;;;3.1;;
67429;SDS011;54298;52.076;5.264;2023-04-27T08:49:58;7.9;;;3.9;;
67429;SDS011;54298;52.076;5.264;2023-04-27T08:53:17;8.9;;;3.6;;
67429;SDS011;54298;52.076;5.264;2023-04-27T08:54:54;7.7;;;3.8;;
67429;SDS011;54298;52.076;5.264;2023-04-27T08:56:30;6.7;;;3.5;;
67429;SDS011;54298;52.076;5.264;2023-04-27T08:59:43;6.4;;;3.4;;
67429;SDS011;54298;52.076;5.264;2023-04-27T09:01:19;7.4;;;3.1;;
67429;SDS011;54298;52.076;5.264;2023-04-27T09:02:57;8.4;;;3.6;;
67429;SDS011;54298;52.076;5.264;2023-04-27T09:04:36;7.5;;;4.0;;
67429;SDS011;54298;52.076;5.264;2023-04-27T09:07:58;13.4;;;7.0;;
67429;SDS011;54298;52.076;5.264;2023-04-27T09:09:35;11.4;;;5.5;;
67429;SDS011;54298;52.076;5.264;2023-04-27T09:11:12;7.3;;;3.4;;
67429;SDS011;54298;52.076;5.264;2023-04-27T09:14:34;12.4;;;4.3;;
67429;SDS011;54298;52.076;5.264;2023-04-27T09:16:11;9.71;;;4.91;;
67429;SDS011;54298;52.076;5.264;2023-04-27T09:17:52;7.9;;;3.5;;
67429;SDS011;54298;52.076;5.264;2023-04-27T09:19:29;7.5;;;3.9;;
67429;SDS011;54298;52.076;5.264;2023-04-27T09:22:42;9.5;;;4.0;;
67429;SDS011;54298;52.076;5.264;2023-04-27T09:24:19;9.4;;;4.3;;
67429;SDS011;54298;52.076;5.264;2023-04-27T09:25:55;10.1;;;5.2;;
67429;SDS011;54298;52.076;5.264;2023-04-27T09:29:08;6.1;;;3.3;;
67429;SDS011;54298;52.076;5.264;2023-04-27T09:30:50;9.31;;;3.8;;
67429;SDS011;54298;52.076;5.264;2023-04-27T09:32:27;12.0;;;5.2;;
67429;SDS011;54298;52.076;5.264;2023-04-27T09:34:03;8.1;;;3.1;;
67429;SDS011;54298;52.076;5.264;2023-04-27T09:37:16;8.1;;;3.1;;
67429;SDS011;54298;52.076;5.264;2023-04-27T09:38:54;7.9;;;4.2;;
67429;SDS011;54298;52.076;5.264;2023-04-27T09:40:31;8.2;;;3.7;;
67429;SDS011;54298;52.076;5.264;2023-04-27T09:43:43;8.2;;;3.9;;
67429;SDS011;54298;52.076;5.264;2023-04-27T09:45:20;6.8;;;3.3;;
67429;SDS011;54298;52.076;5.264;2023-04-27T09:46:57;7.9;;;3.5;;
67429;SDS011;54298;52.076;5.264;2023-04-27T09:48:36;7.2;;;3.6;;
67429;SDS011;54298;52.076;5.264;2023-04-27T09:51:51;7.2;;;3.4;;
67429;SDS011;54298;52.076;5.264;2023-04-27T09:53:28;7.1;;;3.4;;
67429;SDS011;54298;52.076;5.264;2023-04-27T09:55:14;6.4;;;3.0;;
67429;SDS011;54298;52.076;5.264;2023-04-27T09:56:57;6.7;;;3.2;;
67429;SDS011;54298;52.076;5.264;2023-04-27T10:00:41;11.5;;;4.91;;
67429;SDS011;54298;52.076;5.264;2023-04-27T10:02:30;7.0;;;3.4;;
67429;SDS011;54298;52.076;5.264;2023-04-27T10:04:30;8.6;;;3.6;;
67429;SDS011;54298;52.076;5.264;2023-04-27T10:06:31;10.1;;;4.3;;
67429;SDS011;54298;52.076;5.264;2023-04-27T10:08:56;9.21;;;4.41;;
67429;SDS011;54298;52.076;5.264;2023-04-27T10:10:41;10.9;;;4.91;;
67429;SDS011;54298;52.076;5.264;2023-04-27T10:12:19;8.4;;;4.5;;
67429;SDS011;54298;52.076;5.264;2023-04-27T10:14:04;7.8;;;3.8;;
67429;SDS011;54298;52.076;5.264;2023-04-27T10:15:41;9.1;;;4.1;;
67429;SDS011;54298;52.076;5.264;2023-04-27T10:18:59;7.9;;;3.8;;
67429;SDS011;54298;52.076;5.264;2023-04-27T10:20:44;7.4;;;3.4;;
67429;SDS011;54298;52.076;5.264;2023-04-27T10:22:21;15.0;;;8.5;;
67429;SDS011;54298;52.076;5.264;2023-04-27T10:25:42;12.5;;;6.4;;
67429;SDS011;54298;52.076;5.264;2023-04-27T10:27:21;7.1;;;3.4;;
67429;SDS011;54298;52.076;5.264;2023-04-27T10:28:59;9.4;;;4.61;;
67429;SDS011;54298;52.076;5.264;2023-04-27T10:30:43;7.4;;;3.3;;
67429;SDS011;54298;52.076;5.264;2023-04-27T10:34:07;19.8;;;13.6;;
67429;SDS011;54298;52.076;5.264;2023-04-27T10:35:52;6.9;;;3.9;;
67429;SDS011;54298;52.076;5.264;2023-04-27T10:37:37;7.2;;;3.9;;
67429;SDS011;54298;52.076;5.264;2023-04-27T10:39:15;7.7;;;3.9;;
67429;SDS011;54298;52.076;5.264;2023-04-27T10:40:53;9.4;;;3.7;;
67429;SDS011;54298;52.076;5.264;2023-04-27T10:44:15;6.8;;;3.8;;
67429;SDS011;54298;52.076;5.264;2023-04-27T10:45:52;6.6;;;3.8;;
67429;SDS011;54298;52.076;5.264;2023-04-27T10:47:38;6.7;;;3.7;;
67429;SDS011;54298;52.076;5.264;2023-04-27T10:49:15;6.3;;;3.5;;
67429;SDS011;54298;52.076;5.264;2023-04-27T10:52:27;8.0;;;3.9;;
67429;SDS011;54298;52.076;5.264;2023-04-27T10:54:03;7.6;;;3.8;;
67429;SDS011;54298;52.076;5.264;2023-04-27T10:55:39;8.1;;;3.6;;
67429;SDS011;54298;52.076;5.264;2023-04-27T10:58:51;7.1;;;3.8;;
67429;SDS011;54298;52.076;5.264;2023-04-27T11:00:28;7.1;;;3.9;;
67429;SDS011;54298;52.076;5.264;2023-04-27T11:02:06;5.8;;;3.4;;
67429;SDS011;54298;52.076;5.264;2023-04-27T11:05:18;7.4;;;3.8;;
67429;SDS011;54298;52.076;5.264;2023-04-27T11:06:56;7.3;;;3.8;;
67429;SDS011;54298;52.076;5.264;2023-04-27T11:08:32;7.3;;;3.8;;
67429;SDS011;54298;52.076;5.264;2023-04-27T11:10:18;8.1;;;3.8;;
67429;SDS011;54298;52.076;5.264;2023-04-27T11:13:31;9.21;;;3.9;;
67429;SDS011;54298;52.076;5.264;2023-04-27T11:15:08;6.5;;;3.7;;
67429;SDS011;54298;52.076;5.264;2023-04-27T11:16:45;6.6;;;3.7;;
67429;SDS011;54298;52.076;5.264;2023-04-27T11:20:01;7.2;;;3.8;;
67429;SDS011;54298;52.076;5.264;2023-04-27T11:21:38;10.3;;;3.9;;
67429;SDS011;54298;52.076;5.264;2023-04-27T11:23:21;6.3;;;3.8;;
67429;SDS011;54298;52.076;5.264;2023-04-27T11:24:59;16.9;;;9.21;;
67429;SDS011;54298;52.076;5.264;2023-04-27T11:28:15;14.7;;;7.8;;
67429;SDS011;54298;52.076;5.264;2023-04-27T11:29:52;11.0;;;5.8;;
67429;SDS011;54298;52.076;5.264;2023-04-27T11:31:37;6.9;;;3.8;;
67429;SDS011;54298;52.076;5.264;2023-04-27T11:33:15;10.1;;;5.7;;
67429;SDS011;54298;52.076;5.264;2023-04-27T11:36:28;9.0;;;4.0;;
67429;SDS011;54298;52.076;5.264;2023-04-27T11:38:04;7.4;;;4.0;;
67429;SDS011;54298;52.076;5.264;2023-04-27T11:39:41;7.2;;;3.7;;
67429;SDS011;54298;52.076;5.264;2023-04-27T11:42:56;6.4;;;3.3;;
67429;SDS011;54298;52.076;5.264;2023-04-27T11:44:33;6.2;;;3.6;;
67429;SDS011;54298;52.076;5.264;2023-04-27T11:46:09;7.7;;;3.8;;
67429;SDS011;54298;52.076;5.264;2023-04-27T11:47:45;8.1;;;3.7;;
67429;SDS011;54298;52.076;5.264;2023-04-27T11:51:00;7.5;;;3.6;;
67429;SDS011;54298;52.076;5.264;2023-04-27T11:52:37;7.2;;;4.1;;
67429;SDS011;54298;52.076;5.264;2023-04-27T11:54:14;8.31;;;4.0;;
67429;SDS011;54298;52.076;5.264;2023-04-27T11:57:27;8.4;;;4.0;;
67429;SDS011;54298;52.076;5.264;2023-04-27T11:59:16;6.3;;;3.4;;
67429;SDS011;54298;52.076;5.264;2023-04-27T12:00:55;7.5;;;3.7;;
67429;SDS011;54298;52.076;5.264;2023-04-27T12:02:31;7.8;;;3.8;;
67429;SDS011;54298;52.076;5.264;2023-04-27T12:05:47;7.8;;;4.1;;
67429;SDS011;54298;52.076;5.264;2023-04-27T12:07:24;7.2;;;4.0;;
67429;SDS011;54298;52.076;5.264;2023-04-27T12:09:00;6.9;;;3.9;;
67429;SDS011;54298;52.076;5.264;2023-04-27T12:12:12;7.6;;;3.8;;
67429;SDS011;54298;52.076;5.264;2023-04-27T12:13:48;8.2;;;4.2;;
67429;SDS011;54298;52.076;5.264;2023-04-27T12:15:24;7.6;;;3.8;;
67429;SDS011;54298;52.076;5.264;2023-04-27T12:17:00;5.9;;;3.3;;
67429;SDS011;54298;52.076;5.264;2023-04-27T12:20:13;7.5;;;3.9;;
67429;SDS011;54298;52.076;5.264;2023-04-27T12:21:49;7.8;;;4.41;;
67429;SDS011;54298;52.076;5.264;2023-04-27T12:23:25;7.1;;;3.7;;
67429;SDS011;54298;52.076;5.264;2023-04-27T12:26:37;5.11;;;3.6;;
67429;SDS011;54298;52.076;5.264;2023-04-27T12:28:13;7.5;;;4.0;;
67429;SDS011;54298;52.076;5.264;2023-04-27T12:29:49;7.7;;;3.8;;
67429;SDS011;54298;52.076;5.264;2023-04-27T12:33:02;7.5;;;3.6;;
67429;SDS011;54298;52.076;5.264;2023-04-27T12:34:38;7.4;;;4.2;;
67429;SDS011;54298;52.076;5.264;2023-04-27T12:36:14;6.2;;;4.1;;
67429;SDS011;54298;52.076;5.264;2023-04-27T12:39:26;6.6;;;4.2;;
67429;SDS011;54298;52.076;5.264;2023-04-27T12:41:02;8.9;;;4.0;;
67429;SDS011;54298;52.076;5.264;2023-04-27T12:42:38;7.3;;;3.8;;
67429;SDS011;54298;52.076;5.264;2023-04-27T12:44:15;7.8;;;4.0;;
67429;SDS011;54298;52.076;5.264;2023-04-27T12:47:29;7.8;;;4.7;;
67429;SDS011;54298;52.076;5.264;2023-04-27T12:49:05;7.3;;;4.2;;
67429;SDS011;54298;52.076;5.264;2023-04-27T12:50:42;7.4;;;4.1;;
67429;SDS011;54298;52.076;5.264;2023-04-27T12:53:55;7.8;;;4.0;;
67429;SDS011;54298;52.076;5.264;2023-04-27T12:55:31;6.9;;;4.3;;
67429;SDS011;54298;52.076;5.264;2023-04-27T12:57:07;8.4;;;4.2;;